Terminal Aerodrome Forecast
Issued by NWS Springfield, MO

Home | Current Version | Previous Version | Text Only | Print | Product List | Glossary On
Versions: 1 2 3 4 5 6 7 8 9 10 11 12 13 14
000
FTUS43 KSGF 280500
TAFSGF
TAF
KSGF 280538Z 2806/2906 14014KT P6SM SKC
     FM280900 15016G22KT P6SM SKC WS020/23035KT
     FM281500 16019G27KT P6SM SCT300 WS020/23040KT
     FM290100 20013KT P6SM SCT250 WS020/22045KT=

USA.gov is the U.S. government's official web portal to all federal, state and local government web resources and services.